sensor_id;sensor_type;location;lat;lon;timestamp;temperature;humidity
48752;DHT22;34544;48.836;9.174;2023-03-01T00:01:08;-1.40;99.90
48752;DHT22;34544;48.836;9.174;2023-03-01T00:03:35;-1.40;99.90
48752;DHT22;34544;48.836;9.174;2023-03-01T00:06:01;-1.40;99.90
48752;DHT22;34544;48.836;9.174;2023-03-01T00:08:27;-1.40;99.90
48752;DHT22;34544;48.836;9.174;2023-03-01T00:13:32;-1.40;99.90
48752;DHT22;34544;48.836;9.174;2023-03-01T00:15:58;-1.30;99.90
48752;DHT22;34544;48.836;9.174;2023-03-01T00:18:23;-1.30;99.90
48752;DHT22;34544;48.836;9.174;2023-03-01T00:20:54;-1.30;99.90
48752;DHT22;34544;48.836;9.174;2023-03-01T00:23:21;-1.30;99.90
48752;DHT22;34544;48.836;9.174;2023-03-01T00:25:47;-1.40;99.90
48752;DHT22;34544;48.836;9.174;2023-03-01T00:28:13;-1.30;99.90
48752;DHT22;34544;48.836;9.174;2023-03-01T00:30:39;-1.30;99.90
48752;DHT22;34544;48.836;9.174;2023-03-01T00:33:05;-1.30;99.90
48752;DHT22;34544;48.836;9.174;2023-03-01T00:35:33;-1.30;99.90
48752;DHT22;34544;48.836;9.174;2023-03-01T00:37:59;-1.20;99.90
48752;DHT22;34544;48.836;9.174;2023-03-01T00:40:25;-1.20;99.90
48752;DHT22;34544;48.836;9.174;2023-03-01T00:42:51;-1.10;99.90
48752;DHT22;34544;48.836;9.174;2023-03-01T00:45:17;-1.10;99.90
48752;DHT22;34544;48.836;9.174;2023-03-01T00:47:43;-1.10;99.90
48752;DHT22;34544;48.836;9.174;2023-03-01T00:50:10;-1.10;99.90
48752;DHT22;34544;48.836;9.174;2023-03-01T00:52:36;-1.10;99.90
48752;DHT22;34544;48.836;9.174;2023-03-01T00:55:02;-1.20;99.90
48752;DHT22;34544;48.836;9.174;2023-03-01T00:57:28;-1.20;99.90
48752;DHT22;34544;48.836;9.174;2023-03-01T00:59:54;-1.30;99.90
48752;DHT22;34544;48.836;9.174;2023-03-01T01:02:20;-1.30;99.90
48752;DHT22;34544;48.836;9.174;2023-03-01T01:04:47;-1.30;99.90
48752;DHT22;34544;48.836;9.174;2023-03-01T01:07:13;-1.30;99.90
48752;DHT22;34544;48.836;9.174;2023-03-01T01:09:39;-1.30;99.90
48752;DHT22;34544;48.836;9.174;2023-03-01T01:12:05;-1.30;99.90
48752;DHT22;34544;48.836;9.174;2023-03-01T01:14:31;-1.30;99.90
48752;DHT22;34544;48.836;9.174;2023-03-01T01:16:57;-1.40;99.90
48752;DHT22;34544;48.836;9.174;2023-03-01T01:19:23;-1.30;99.90
48752;DHT22;34544;48.836;9.174;2023-03-01T01:21:49;-1.40;99.90
48752;DHT22;34544;48.836;9.174;2023-03-01T01:24:16;-1.40;99.90
48752;DHT22;34544;48.836;9.174;2023-03-01T01:26:42;-1.40;99.90
48752;DHT22;34544;48.836;9.174;2023-03-01T01:29:08;-1.40;99.90
48752;DHT22;34544;48.836;9.174;2023-03-01T01:31:35;-1.40;99.90
48752;DHT22;34544;48.836;9.174;2023-03-01T01:34:04;-1.50;99.90
48752;DHT22;34544;48.836;9.174;2023-03-01T01:36:31;-1.50;99.90
48752;DHT22;34544;48.836;9.174;2023-03-01T01:38:57;-1.50;99.90
48752;DHT22;34544;48.836;9.174;2023-03-01T01:41:24;-1.50;99.90
48752;DHT22;34544;48.836;9.174;2023-03-01T01:46:55;-1.60;99.90
48752;DHT22;34544;48.836;9.174;2023-03-01T01:49:38;-1.60;99.90
48752;DHT22;34544;48.836;9.174;2023-03-01T01:54:44;-1.60;99.90
48752;DHT22;34544;48.836;9.174;2023-03-01T01:57:18;-1.60;99.90
48752;DHT22;34544;48.836;9.174;2023-03-01T01:59:48;-1.60;99.90
48752;DHT22;34544;48.836;9.174;2023-03-01T02:02:16;-1.60;99.90
48752;DHT22;34544;48.836;9.174;2023-03-01T02:04:42;-1.50;99.90
48752;DHT22;34544;48.836;9.174;2023-03-01T02:07:19;-1.50;99.90
48752;DHT22;34544;48.836;9.174;2023-03-01T02:09:49;-1.40;99.90
48752;DHT22;34544;48.836;9.174;2023-03-01T02:12:17;-1.40;99.90
48752;DHT22;34544;48.836;9.174;2023-03-01T02:14:43;-1.30;99.90
48752;DHT22;34544;48.836;9.174;2023-03-01T02:17:10;-1.20;99.90
48752;DHT22;34544;48.836;9.174;2023-03-01T02:22:23;-1.10;99.90
48752;DHT22;34544;48.836;9.174;2023-03-01T02:27:23;-1.00;99.90
48752;DHT22;34544;48.836;9.174;2023-03-01T02:29:50;-0.90;99.90
48752;DHT22;34544;48.836;9.174;2023-03-01T02:32:17;-0.80;99.90
48752;DHT22;34544;48.836;9.174;2023-03-01T02:34:54;-0.70;99.90
48752;DHT22;34544;48.836;9.174;2023-03-01T02:37:21;-0.60;99.90
48752;DHT22;34544;48.836;9.174;2023-03-01T02:39:55;-0.60;99.90
48752;DHT22;34544;48.836;9.174;2023-03-01T02:42:27;-0.40;99.90
48752;DHT22;34544;48.836;9.174;2023-03-01T02:44:53;-0.40;99.90
48752;DHT22;34544;48.836;9.174;2023-03-01T02:47:19;-0.30;99.90
48752;DHT22;34544;48.836;9.174;2023-03-01T02:49:45;-0.20;99.90
48752;DHT22;34544;48.836;9.174;2023-03-01T02:52:48;-0.10;99.90
48752;DHT22;34544;48.836;9.174;2023-03-01T02:55:18;-0.10;99.90
48752;DHT22;34544;48.836;9.174;2023-03-01T02:57:46;-0.10;99.90
48752;DHT22;34544;48.836;9.174;2023-03-01T03:00:26;0.00;99.90
48752;DHT22;34544;48.836;9.174;2023-03-01T03:02:54;0.00;99.90
48752;DHT22;34544;48.836;9.174;2023-03-01T03:05:28;0.10;99.90
48752;DHT22;34544;48.836;9.174;2023-03-01T03:07:58;0.10;99.90
48752;DHT22;34544;48.836;9.174;2023-03-01T03:10:29;0.10;99.90
48752;DHT22;34544;48.836;9.174;2023-03-01T03:13:04;0.10;99.90
48752;DHT22;34544;48.836;9.174;2023-03-01T03:15:30;0.10;99.90
48752;DHT22;34544;48.836;9.174;2023-03-01T03:17:58;0.10;99.90
48752;DHT22;34544;48.836;9.174;2023-03-01T03:20:26;0.20;99.90
48752;DHT22;34544;48.836;9.174;2023-03-01T03:22:54;0.20;99.90
48752;DHT22;34544;48.836;9.174;2023-03-01T03:25:21;0.20;99.90
48752;DHT22;34544;48.836;9.174;2023-03-01T03:27:49;0.30;99.90
48752;DHT22;34544;48.836;9.174;2023-03-01T03:30:23;0.30;99.90
48752;DHT22;34544;48.836;9.174;2023-03-01T03:32:49;0.30;99.90
48752;DHT22;34544;48.836;9.174;2023-03-01T03:35:29;0.30;99.90
48752;DHT22;34544;48.836;9.174;2023-03-01T03:37:56;0.30;99.90
48752;DHT22;34544;48.836;9.174;2023-03-01T03:40:39;0.30;99.90
48752;DHT22;34544;48.836;9.174;2023-03-01T03:43:08;0.40;99.90
48752;DHT22;34544;48.836;9.174;2023-03-01T03:45:34;0.40;99.90
48752;DHT22;34544;48.836;9.174;2023-03-01T03:48:02;0.40;99.90
48752;DHT22;34544;48.836;9.174;2023-03-01T03:50:28;0.40;99.90
48752;DHT22;34544;48.836;9.174;2023-03-01T03:52:54;0.50;99.90
48752;DHT22;34544;48.836;9.174;2023-03-01T03:55:19;0.50;99.90
48752;DHT22;34544;48.836;9.174;2023-03-01T03:57:46;0.50;99.90
48752;DHT22;34544;48.836;9.174;2023-03-01T04:00:21;0.60;99.90
48752;DHT22;34544;48.836;9.174;2023-03-01T04:02:48;0.60;99.90
48752;DHT22;34544;48.836;9.174;2023-03-01T04:05:16;0.60;99.90
48752;DHT22;34544;48.836;9.174;2023-03-01T04:07:42;0.60;99.90
48752;DHT22;34544;48.836;9.174;2023-03-01T04:10:13;0.70;99.90
48752;DHT22;34544;48.836;9.174;2023-03-01T04:12:39;0.70;99.90
48752;DHT22;34544;48.836;9.174;2023-03-01T04:15:07;0.70;99.90
48752;DHT22;34544;48.836;9.174;2023-03-01T04:17:43;0.70;99.90
48752;DHT22;34544;48.836;9.174;2023-03-01T04:20:16;0.70;99.90
48752;DHT22;34544;48.836;9.174;2023-03-01T04:22:43;0.70;99.90
48752;DHT22;34544;48.836;9.174;2023-03-01T04:25:12;0.70;99.90
48752;DHT22;34544;48.836;9.174;2023-03-01T04:27:39;0.70;99.90
48752;DHT22;34544;48.836;9.174;2023-03-01T04:30:06;0.70;99.90
48752;DHT22;34544;48.836;9.174;2023-03-01T04:32:32;0.80;99.90
48752;DHT22;34544;48.836;9.174;2023-03-01T04:34:57;0.80;99.90
48752;DHT22;34544;48.836;9.174;2023-03-01T04:37:23;0.80;99.90
48752;DHT22;34544;48.836;9.174;2023-03-01T04:39:49;0.80;99.90
48752;DHT22;34544;48.836;9.174;2023-03-01T04:42:15;0.80;99.90
48752;DHT22;34544;48.836;9.174;2023-03-01T04:44:42;0.80;99.90
48752;DHT22;34544;48.836;9.174;2023-03-01T04:47:08;0.80;99.90
48752;DHT22;34544;48.836;9.174;2023-03-01T04:49:34;0.80;99.90
48752;DHT22;34544;48.836;9.174;2023-03-01T04:52:00;0.90;99.90
48752;DHT22;34544;48.836;9.174;2023-03-01T04:54:34;0.90;99.90
48752;DHT22;34544;48.836;9.174;2023-03-01T04:57:01;0.90;99.90
48752;DHT22;34544;48.836;9.174;2023-03-01T04:59:27;0.90;99.90
48752;DHT22;34544;48.836;9.174;2023-03-01T05:01:54;0.90;99.90
48752;DHT22;34544;48.836;9.174;2023-03-01T05:04:22;0.90;99.90
48752;DHT22;34544;48.836;9.174;2023-03-01T05:06:48;0.90;99.90
48752;DHT22;34544;48.836;9.174;2023-03-01T05:09:14;0.90;99.90
48752;DHT22;34544;48.836;9.174;2023-03-01T05:11:39;0.90;99.90
48752;DHT22;34544;48.836;9.174;2023-03-01T05:14:06;0.90;99.90
48752;DHT22;34544;48.836;9.174;2023-03-01T05:16:32;0.90;99.90
48752;DHT22;34544;48.836;9.174;2023-03-01T05:18:58;0.90;99.90
48752;DHT22;34544;48.836;9.174;2023-03-01T05:21:25;0.90;99.90
48752;DHT22;34544;48.836;9.174;2023-03-01T05:23:51;1.00;99.90
48752;DHT22;34544;48.836;9.174;2023-03-01T05:26:18;1.00;99.90
48752;DHT22;34544;48.836;9.174;2023-03-01T05:28:44;1.00;99.90
48752;DHT22;34544;48.836;9.174;2023-03-01T05:31:10;1.00;99.90
48752;DHT22;34544;48.836;9.174;2023-03-01T05:33:40;1.10;99.90
48752;DHT22;34544;48.836;9.174;2023-03-01T05:36:08;1.10;99.90
48752;DHT22;34544;48.836;9.174;2023-03-01T05:38:35;1.10;99.90
48752;DHT22;34544;48.836;9.174;2023-03-01T05:41:01;1.10;99.90
48752;DHT22;34544;48.836;9.174;2023-03-01T05:43:30;1.20;99.90
48752;DHT22;34544;48.836;9.174;2023-03-01T05:45:59;1.10;99.90
48752;DHT22;34544;48.836;9.174;2023-03-01T05:48:25;1.10;99.90
48752;DHT22;34544;48.836;9.174;2023-03-01T05:50:51;1.10;99.90
48752;DHT22;34544;48.836;9.174;2023-03-01T05:53:19;1.10;99.90
48752;DHT22;34544;48.836;9.174;2023-03-01T05:55:46;1.10;99.90
48752;DHT22;34544;48.836;9.174;2023-03-01T05:58:18;1.10;99.90
48752;DHT22;34544;48.836;9.174;2023-03-01T06:00:45;1.10;99.90
48752;DHT22;34544;48.836;9.174;2023-03-01T06:03:13;1.10;99.90
48752;DHT22;34544;48.836;9.174;2023-03-01T06:05:39;1.00;99.90
48752;DHT22;34544;48.836;9.174;2023-03-01T06:08:05;1.00;99.90
48752;DHT22;34544;48.836;9.174;2023-03-01T06:10:31;1.00;99.90
48752;DHT22;34544;48.836;9.174;2023-03-01T06:12:57;1.00;99.90
48752;DHT22;34544;48.836;9.174;2023-03-01T06:15:24;1.00;99.90
48752;DHT22;34544;48.836;9.174;2023-03-01T06:17:50;1.10;99.90
48752;DHT22;34544;48.836;9.174;2023-03-01T06:20:22;1.10;99.90
48752;DHT22;34544;48.836;9.174;2023-03-01T06:22:48;1.10;99.90
48752;DHT22;34544;48.836;9.174;2023-03-01T06:25:17;1.10;99.90
48752;DHT22;34544;48.836;9.174;2023-03-01T06:27:43;1.20;99.90
48752;DHT22;34544;48.836;9.174;2023-03-01T06:30:11;1.20;99.90
48752;DHT22;34544;48.836;9.174;2023-03-01T06:32:38;1.20;99.90
48752;DHT22;34544;48.836;9.174;2023-03-01T06:35:08;1.20;99.90
48752;DHT22;34544;48.836;9.174;2023-03-01T06:37:33;1.20;99.90
48752;DHT22;34544;48.836;9.174;2023-03-01T06:40:01;1.20;99.90
48752;DHT22;34544;48.836;9.174;2023-03-01T06:42:37;1.20;99.90
48752;DHT22;34544;48.836;9.174;2023-03-01T06:45:04;1.20;99.90
48752;DHT22;34544;48.836;9.174;2023-03-01T06:47:30;1.20;99.90
48752;DHT22;34544;48.836;9.174;2023-03-01T06:49:56;1.20;99.90
48752;DHT22;34544;48.836;9.174;2023-03-01T06:52:22;1.20;99.90
48752;DHT22;34544;48.836;9.174;2023-03-01T06:54:47;1.20;99.90
48752;DHT22;34544;48.836;9.174;2023-03-01T06:57:13;1.20;99.90
48752;DHT22;34544;48.836;9.174;2023-03-01T06:59:38;1.30;99.90
48752;DHT22;34544;48.836;9.174;2023-03-01T07:02:04;1.30;99.90
48752;DHT22;34544;48.836;9.174;2023-03-01T07:04:29;1.40;99.90
48752;DHT22;34544;48.836;9.174;2023-03-01T07:06:56;1.40;99.90
48752;DHT22;34544;48.836;9.174;2023-03-01T07:09:22;1.50;99.90
48752;DHT22;34544;48.836;9.174;2023-03-01T07:11:48;1.60;99.90
48752;DHT22;34544;48.836;9.174;2023-03-01T07:14:14;1.70;99.90
48752;DHT22;34544;48.836;9.174;2023-03-01T07:16:40;1.80;99.90
48752;DHT22;34544;48.836;9.174;2023-03-01T07:19:06;1.90;99.90
48752;DHT22;34544;48.836;9.174;2023-03-01T07:21:31;2.00;99.90
48752;DHT22;34544;48.836;9.174;2023-03-01T07:23:57;2.20;99.90
48752;DHT22;34544;48.836;9.174;2023-03-01T07:26:23;2.30;99.90
48752;DHT22;34544;48.836;9.174;2023-03-01T07:28:48;2.40;99.90
48752;DHT22;34544;48.836;9.174;2023-03-01T07:31:14;2.60;99.90
48752;DHT22;34544;48.836;9.174;2023-03-01T07:33:39;2.70;99.90
48752;DHT22;34544;48.836;9.174;2023-03-01T07:36:05;2.80;99.90
48752;DHT22;34544;48.836;9.174;2023-03-01T07:38:32;3.00;99.90
48752;DHT22;34544;48.836;9.174;2023-03-01T07:40:59;3.10;99.90
48752;DHT22;34544;48.836;9.174;2023-03-01T07:43:26;3.30;99.90
48752;DHT22;34544;48.836;9.174;2023-03-01T07:45:52;3.40;99.90
48752;DHT22;34544;48.836;9.174;2023-03-01T07:48:17;3.60;99.90
48752;DHT22;34544;48.836;9.174;2023-03-01T07:50:43;3.70;99.90
48752;DHT22;34544;48.836;9.174;2023-03-01T07:53:09;3.90;99.90
48752;DHT22;34544;48.836;9.174;2023-03-01T07:55:36;4.00;99.90
48752;DHT22;34544;48.836;9.174;2023-03-01T07:58:01;4.20;99.90
48752;DHT22;34544;48.836;9.174;2023-03-01T08:00:27;4.30;99.90
48752;DHT22;34544;48.836;9.174;2023-03-01T08:02:53;4.30;99.90
48752;DHT22;34544;48.836;9.174;2023-03-01T08:05:18;4.40;99.90
48752;DHT22;34544;48.836;9.174;2023-03-01T08:07:44;4.60;99.90
48752;DHT22;34544;48.836;9.174;2023-03-01T08:10:10;4.70;99.90
48752;DHT22;34544;48.836;9.174;2023-03-01T08:12:36;4.90;99.90
48752;DHT22;34544;48.836;9.174;2023-03-01T08:15:02;5.20;99.90
48752;DHT22;34544;48.836;9.174;2023-03-01T08:17:28;5.40;99.90
48752;DHT22;34544;48.836;9.174;2023-03-01T08:19:53;5.70;99.90
48752;DHT22;34544;48.836;9.174;2023-03-01T08:22:19;5.70;99.90
48752;DHT22;34544;48.836;9.174;2023-03-01T08:24:44;5.80;99.90
48752;DHT22;34544;48.836;9.174;2023-03-01T08:27:10;6.00;99.90
48752;DHT22;34544;48.836;9.174;2023-03-01T08:29:37;6.10;99.90
48752;DHT22;34544;48.836;9.174;2023-03-01T08:32:03;6.30;99.90
48752;DHT22;34544;48.836;9.174;2023-03-01T08:34:29;6.40;99.90
48752;DHT22;34544;48.836;9.174;2023-03-01T08:36:56;6.60;99.90
48752;DHT22;34544;48.836;9.174;2023-03-01T08:39:22;6.70;99.90
48752;DHT22;34544;48.836;9.174;2023-03-01T08:41:47;7.00;99.90
48752;DHT22;34544;48.836;9.174;2023-03-01T08:44:15;7.20;99.90
48752;DHT22;34544;48.836;9.174;2023-03-01T08:46:42;7.30;99.90
48752;DHT22;34544;48.836;9.174;2023-03-01T08:49:13;7.30;99.90
48752;DHT22;34544;48.836;9.174;2023-03-01T08:51:40;7.40;99.90
48752;DHT22;34544;48.836;9.174;2023-03-01T08:54:10;7.60;99.90
48752;DHT22;34544;48.836;9.174;2023-03-01T08:56:36;7.70;99.90
48752;DHT22;34544;48.836;9.174;2023-03-01T08:59:02;7.90;99.90
48752;DHT22;34544;48.836;9.174;2023-03-01T09:01:29;8.00;99.90
48752;DHT22;34544;48.836;9.174;2023-03-01T09:03:55;8.00;99.90
48752;DHT22;34544;48.836;9.174;2023-03-01T09:06:21;7.90;99.90
48752;DHT22;34544;48.836;9.174;2023-03-01T09:08:48;8.10;99.90
48752;DHT22;34544;48.836;9.174;2023-03-01T09:11:20;8.40;99.90
48752;DHT22;34544;48.836;9.174;2023-03-01T09:13:48;8.60;99.90
48752;DHT22;34544;48.836;9.174;2023-03-01T09:16:15;9.00;99.90
48752;DHT22;34544;48.836;9.174;2023-03-01T09:18:43;9.30;99.90
48752;DHT22;34544;48.836;9.174;2023-03-01T09:21:14;9.40;99.90
48752;DHT22;34544;48.836;9.174;2023-03-01T09:23:44;9.50;99.90
48752;DHT22;34544;48.836;9.174;2023-03-01T09:26:16;9.60;99.40
48752;DHT22;34544;48.836;9.174;2023-03-01T09:28:42;9.80;99.00
48752;DHT22;34544;48.836;9.174;2023-03-01T09:31:08;10.00;98.70
48752;DHT22;34544;48.836;9.174;2023-03-01T09:33:34;10.30;98.10
48752;DHT22;34544;48.836;9.174;2023-03-01T09:36:01;10.50;97.90
48752;DHT22;34544;48.836;9.174;2023-03-01T09:38:28;10.70;97.30
48752;DHT22;34544;48.836;9.174;2023-03-01T09:40:54;10.80;96.80
48752;DHT22;34544;48.836;9.174;2023-03-01T09:46:03;11.00;96.50
48752;DHT22;34544;48.836;9.174;2023-03-01T09:48:34;11.20;96.10
48752;DHT22;34544;48.836;9.174;2023-03-01T09:51:03;11.30;95.90
48752;DHT22;34544;48.836;9.174;2023-03-01T09:53:33;11.50;96.10
48752;DHT22;34544;48.836;9.174;2023-03-01T09:56:17;11.80;94.70
48752;DHT22;34544;48.836;9.174;2023-03-01T09:58:55;12.00;95.00
48752;DHT22;34544;48.836;9.174;2023-03-01T10:01:56;12.20;94.40
48752;DHT22;34544;48.836;9.174;2023-03-01T10:09:43;12.60;93.90
48752;DHT22;34544;48.836;9.174;2023-03-01T10:12:16;12.90;93.60
48752;DHT22;34544;48.836;9.174;2023-03-01T10:15:14;13.20;93.10
48752;DHT22;34544;48.836;9.174;2023-03-01T10:17:51;13.80;92.30
48752;DHT22;34544;48.836;9.174;2023-03-01T10:20:20;14.00;91.10
48752;DHT22;34544;48.836;9.174;2023-03-01T10:22:47;13.90;91.30
48752;DHT22;34544;48.836;9.174;2023-03-01T10:28:20;14.10;91.30
48752;DHT22;34544;48.836;9.174;2023-03-01T10:30:49;14.20;91.00
48752;DHT22;34544;48.836;9.174;2023-03-01T10:33:35;14.30;91.00
48752;DHT22;34544;48.836;9.174;2023-03-01T10:36:02;14.70;89.80
48752;DHT22;34544;48.836;9.174;2023-03-01T10:38:30;14.80;90.00
48752;DHT22;34544;48.836;9.174;2023-03-01T10:41:05;14.80;89.00
48752;DHT22;34544;48.836;9.174;2023-03-01T10:43:53;15.10;88.40
48752;DHT22;34544;48.836;9.174;2023-03-01T10:46:27;15.30;85.10
48752;DHT22;34544;48.836;9.174;2023-03-01T10:49:13;15.30;86.70
48752;DHT22;34544;48.836;9.174;2023-03-01T10:51:44;15.60;86.40
48752;DHT22;34544;48.836;9.174;2023-03-01T10:54:28;16.10;85.90
48752;DHT22;34544;48.836;9.174;2023-03-01T10:56:56;16.40;84.30
48752;DHT22;34544;48.836;9.174;2023-03-01T10:59:33;16.60;81.10
48752;DHT22;34544;48.836;9.174;2023-03-01T11:02:28;16.30;81.40
48752;DHT22;34544;48.836;9.174;2023-03-01T11:07:52;16.00;81.40
48752;DHT22;34544;48.836;9.174;2023-03-01T11:10:22;15.80;81.50
48752;DHT22;34544;48.836;9.174;2023-03-01T11:12:48;15.90;81.20
48752;DHT22;34544;48.836;9.174;2023-03-01T11:15:22;16.30;82.50
48752;DHT22;34544;48.836;9.174;2023-03-01T11:17:48;16.90;81.20
48752;DHT22;34544;48.836;9.174;2023-03-01T11:20:24;17.60;80.00
48752;DHT22;34544;48.836;9.174;2023-03-01T11:22:56;17.90;78.20
48752;DHT22;34544;48.836;9.174;2023-03-01T11:25:26;18.10;77.30
48752;DHT22;34544;48.836;9.174;2023-03-01T11:27:53;17.90;77.40
48752;DHT22;34544;48.836;9.174;2023-03-01T11:30:27;17.90;76.70
48752;DHT22;34544;48.836;9.174;2023-03-01T11:33:17;18.30;77.40
48752;DHT22;34544;48.836;9.174;2023-03-01T11:36:35;18.60;76.00
48752;DHT22;34544;48.836;9.174;2023-03-01T11:38:36;19.10;75.00
48752;DHT22;34544;48.836;9.174;2023-03-01T11:41:18;19.50;74.20
48752;DHT22;34544;48.836;9.174;2023-03-01T11:44:10;19.40;73.00
48752;DHT22;34544;48.836;9.174;2023-03-01T11:52:36;19.20;72.70
48752;DHT22;34544;48.836;9.174;2023-03-01T12:04:26;19.80;70.40
48752;DHT22;34544;48.836;9.174;2023-03-01T12:07:12;19.80;70.70
48752;DHT22;34544;48.836;9.174;2023-03-01T12:12:45;20.00;71.10
48752;DHT22;34544;48.836;9.174;2023-03-01T12:15:44;20.40;70.20
48752;DHT22;34544;48.836;9.174;2023-03-01T12:20:57;20.40;69.80
48752;DHT22;34544;48.836;9.174;2023-03-01T12:26:43;20.30;69.80
48752;DHT22;34544;48.836;9.174;2023-03-01T12:29:24;20.10;69.50
48752;DHT22;34544;48.836;9.174;2023-03-01T12:35:00;20.30;69.80
48752;DHT22;34544;48.836;9.174;2023-03-01T12:37:58;20.60;69.50
48752;DHT22;34544;48.836;9.174;2023-03-01T12:40:38;20.80;67.80
48752;DHT22;34544;48.836;9.174;2023-03-01T12:43:32;20.80;67.90
48752;DHT22;34544;48.836;9.174;2023-03-01T12:46:15;20.70;67.60
48752;DHT22;34544;48.836;9.174;2023-03-01T12:51:30;20.60;68.00
48752;DHT22;34544;48.836;9.174;2023-03-01T12:53:58;20.50;68.10
48752;DHT22;34544;48.836;9.174;2023-03-01T12:56:27;20.40;68.00
48752;DHT22;34544;48.836;9.174;2023-03-01T13:02:26;20.20;67.20
48752;DHT22;34544;48.836;9.174;2023-03-01T13:07:50;20.30;67.60
48752;DHT22;34544;48.836;9.174;2023-03-01T13:12:53;20.50;67.90
48752;DHT22;34544;48.836;9.174;2023-03-01T13:15:36;20.50;66.80
48752;DHT22;34544;48.836;9.174;2023-03-01T13:20:45;20.40;67.30
48752;DHT22;34544;48.836;9.174;2023-03-01T13:26:14;20.30;67.00
48752;DHT22;34544;48.836;9.174;2023-03-01T13:28:52;20.20;66.40
48752;DHT22;34544;48.836;9.174;2023-03-01T13:46:51;19.60;67.00
48752;DHT22;34544;48.836;9.174;2023-03-01T13:49:20;19.60;67.50
48752;DHT22;34544;48.836;9.174;2023-03-01T13:51:47;19.80;67.50
48752;DHT22;34544;48.836;9.174;2023-03-01T13:54:16;19.90;67.30
48752;DHT22;34544;48.836;9.174;2023-03-01T13:56:44;20.00;66.50
48752;DHT22;34544;48.836;9.174;2023-03-01T13:59:19;19.80;67.50
48752;DHT22;34544;48.836;9.174;2023-03-01T14:01:54;19.60;67.40
48752;DHT22;34544;48.836;9.174;2023-03-01T14:04:29;19.60;67.00
48752;DHT22;34544;48.836;9.174;2023-03-01T14:07:10;19.60;67.80
48752;DHT22;34544;48.836;9.174;2023-03-01T14:09:40;19.70;67.40
48752;DHT22;34544;48.836;9.174;2023-03-01T14:14:45;19.60;68.60
48752;DHT22;34544;48.836;9.174;2023-03-01T14:19:57;19.60;67.70
48752;DHT22;34544;48.836;9.174;2023-03-01T14:22:28;19.70;67.50
48752;DHT22;34544;48.836;9.174;2023-03-01T14:27:25;19.80;67.80
48752;DHT22;34544;48.836;9.174;2023-03-01T14:30:00;19.70;67.50
48752;DHT22;34544;48.836;9.174;2023-03-01T14:32:28;19.50;68.00
48752;DHT22;34544;48.836;9.174;2023-03-01T14:34:55;19.50;67.50
48752;DHT22;34544;48.836;9.174;2023-03-01T14:37:32;19.10;67.40
48752;DHT22;34544;48.836;9.174;2023-03-01T14:40:00;19.10;68.20
48752;DHT22;34544;48.836;9.174;2023-03-01T14:42:34;18.90;68.60
48752;DHT22;34544;48.836;9.174;2023-03-01T14:45:02;18.50;69.10
48752;DHT22;34544;48.836;9.174;2023-03-01T14:47:34;18.20;69.30
48752;DHT22;34544;48.836;9.174;2023-03-01T14:50:25;17.90;69.20
48752;DHT22;34544;48.836;9.174;2023-03-01T14:52:51;17.70;70.20
48752;DHT22;34544;48.836;9.174;2023-03-01T14:55:26;17.70;70.30
48752;DHT22;34544;48.836;9.174;2023-03-01T14:57:53;17.70;70.20
48752;DHT22;34544;48.836;9.174;2023-03-01T15:00:22;17.70;70.10
48752;DHT22;34544;48.836;9.174;2023-03-01T15:02:51;17.60;70.30
48752;DHT22;34544;48.836;9.174;2023-03-01T15:05:24;17.30;70.50
48752;DHT22;34544;48.836;9.174;2023-03-01T15:07:51;17.10;71.10
48752;DHT22;34544;48.836;9.174;2023-03-01T15:10:25;17.00;70.90
48752;DHT22;34544;48.836;9.174;2023-03-01T15:12:51;16.80;71.10
48752;DHT22;34544;48.836;9.174;2023-03-01T15:15:36;16.70;71.80
48752;DHT22;34544;48.836;9.174;2023-03-01T15:18:13;16.30;72.30
48752;DHT22;34544;48.836;9.174;2023-03-01T15:20:41;15.80;72.90
48752;DHT22;34544;48.836;9.174;2023-03-01T15:23:20;15.40;73.70
48752;DHT22;34544;48.836;9.174;2023-03-01T15:25:47;14.80;74.50
48752;DHT22;34544;48.836;9.174;2023-03-01T15:30:54;13.30;77.30
48752;DHT22;34544;48.836;9.174;2023-03-01T15:33:30;12.70;79.40
48752;DHT22;34544;48.836;9.174;2023-03-01T15:35:58;12.20;79.70
48752;DHT22;34544;48.836;9.174;2023-03-01T15:38:52;11.70;80.90
48752;DHT22;34544;48.836;9.174;2023-03-01T15:43:48;10.80;83.80
48752;DHT22;34544;48.836;9.174;2023-03-01T15:46:22;10.50;84.50
48752;DHT22;34544;48.836;9.174;2023-03-01T15:49:37;10.30;84.60
48752;DHT22;34544;48.836;9.174;2023-03-01T15:51:37;10.00;85.80
48752;DHT22;34544;48.836;9.174;2023-03-01T15:54:21;9.70;86.50
48752;DHT22;34544;48.836;9.174;2023-03-01T15:56:47;9.50;87.50
48752;DHT22;34544;48.836;9.174;2023-03-01T15:59:13;9.40;88.20
48752;DHT22;34544;48.836;9.174;2023-03-01T16:01:42;9.30;88.80
48752;DHT22;34544;48.836;9.174;2023-03-01T16:04:12;9.10;88.70
48752;DHT22;34544;48.836;9.174;2023-03-01T16:06:42;9.00;89.70
48752;DHT22;34544;48.836;9.174;2023-03-01T16:09:07;8.80;90.00
48752;DHT22;34544;48.836;9.174;2023-03-01T16:11:34;8.70;90.00
48752;DHT22;34544;48.836;9.174;2023-03-01T16:14:02;8.70;90.30
48752;DHT22;34544;48.836;9.174;2023-03-01T16:16:28;8.60;90.50
48752;DHT22;34544;48.836;9.174;2023-03-01T16:18:53;8.50;90.60
48752;DHT22;34544;48.836;9.174;2023-03-01T16:21:22;8.40;91.00
48752;DHT22;34544;48.836;9.174;2023-03-01T16:23:49;8.30;91.10
48752;DHT22;34544;48.836;9.174;2023-03-01T16:26:15;8.20;91.30
48752;DHT22;34544;48.836;9.174;2023-03-01T16:28:42;8.10;91.50
48752;DHT22;34544;48.836;9.174;2023-03-01T16:31:08;8.00;92.20
48752;DHT22;34544;48.836;9.174;2023-03-01T16:33:34;7.90;92.20
48752;DHT22;34544;48.836;9.174;2023-03-01T16:36:05;7.90;92.60
48752;DHT22;34544;48.836;9.174;2023-03-01T16:38:31;7.80;92.30
48752;DHT22;34544;48.836;9.174;2023-03-01T16:40:57;7.80;92.40
48752;DHT22;34544;48.836;9.174;2023-03-01T16:43:23;7.60;92.30
48752;DHT22;34544;48.836;9.174;2023-03-01T16:45:49;7.60;92.70
48752;DHT22;34544;48.836;9.174;2023-03-01T16:48:14;7.50;92.70
48752;DHT22;34544;48.836;9.174;2023-03-01T16:50:40;7.40;92.90
48752;DHT22;34544;48.836;9.174;2023-03-01T16:53:06;7.30;93.20
48752;DHT22;34544;48.836;9.174;2023-03-01T16:55:31;7.20;93.70
48752;DHT22;34544;48.836;9.174;2023-03-01T16:57:58;7.10;94.00
48752;DHT22;34544;48.836;9.174;2023-03-01T17:00:24;7.00;94.10
48752;DHT22;34544;48.836;9.174;2023-03-01T17:02:49;6.90;94.60
48752;DHT22;34544;48.836;9.174;2023-03-01T17:05:17;6.80;94.60
48752;DHT22;34544;48.836;9.174;2023-03-01T17:07:43;6.70;94.80
48752;DHT22;34544;48.836;9.174;2023-03-01T17:10:10;6.60;95.30
48752;DHT22;34544;48.836;9.174;2023-03-01T17:12:36;6.50;95.50
48752;DHT22;34544;48.836;9.174;2023-03-01T17:15:03;6.40;95.90
48752;DHT22;34544;48.836;9.174;2023-03-01T17:17:29;6.30;95.90
48752;DHT22;34544;48.836;9.174;2023-03-01T17:19:54;6.20;96.10
48752;DHT22;34544;48.836;9.174;2023-03-01T17:22:20;6.20;96.50
48752;DHT22;34544;48.836;9.174;2023-03-01T17:24:47;6.10;96.70
48752;DHT22;34544;48.836;9.174;2023-03-01T17:27:13;6.00;97.40
48752;DHT22;34544;48.836;9.174;2023-03-01T17:29:41;5.90;97.60
48752;DHT22;34544;48.836;9.174;2023-03-01T17:32:07;5.90;97.90
48752;DHT22;34544;48.836;9.174;2023-03-01T17:34:33;5.80;97.90